Terminal Aerodrome Forecast
Issued by NWS Pocatello, ID

Home | Current Version | Previous Version | Text Only | Print | Product List | Glossary On
Versions: 1 2 3 4 5 6 7 8 9 10 11 12 13 14 15 16 17 18 19 20 21 22 23 24 25 26
000
FTUS45 KPIH 040528
TAFBYI
TAF
KBYI 040528Z 0406/0506 24011KT P6SM BKN060
     FM041800 21010G20KT P6SM VCSH OVC050
     FM042200 23015G25KT 6SM -SHRASN OVC030
     FM050400 26015G25KT 4SM -SHRASN OVC020=

USA.gov is the U.S. government's official web portal to all federal, state and local government web resources and services.